LPLA METAR and TAF weather

Enter ICAO airport designator
Station Type Date Time Source
LPLA METAR 2022/06/27 17:00 UTC NOAA

LPLA 271700Z /////KT 9999 FEW026 BKN040 21/16 Q1029


Station Type Date Time Source
LPLA Decoded METAR 2022/06/27 17:00 UTC NOAA

Lajes Acores , Portugal (LPLA) 38-46N 027-06W 54M
Jun 27, 2022 - 01:00 PM EDT / 2022.06.27 1700 UTC
Visibility: greater than 7 mile(s):0
Sky conditions: mostly cloudy
Temperature: 69 F (21 C)
Dew Point: 60 F (16 C)
Relative Humidity: 73%
Pressure (altimeter): 30.39 in. Hg (1029 hPa)
ob: LPLA 271700Z /////KT 9999 FEW026 BKN040 21/16 Q1029
cycle: 17

Station Type Date Time Source
LPLA TAF 2022/06/27 18:18 UTC NOAA

TAF LPLA 271703Z 2718/2818 32008KT 9999 FEW0025 BKN040
TEMPO 2813/2818 BKN020

Example: see airport list